Time;durP1;ratioP1;P1;durP2;ratioP2;P2;SDS_P1;SDS_P2;PMS_P1;PMS_P2;Temp;Humidity;BMP_temperature;BMP_pressure;BME280_temperature;BME280_humidity;BME280_pressure;Samples;Min_cycle;Max_cycle;Signal;HPM_P1;HPM_P2
2021/05/28 00:01:50;;;;;;;4.93;4.43;;;;;;;16.23;100.00;93197.69;5017390;28;20225;-94
2021/05/28 00:04:17;;;;;;;5.57;4.93;;;;;;;16.26;100.00;93168.00;5016465;28;20274;-94
2021/05/28 00:06:45;;;;;;;4.70;4.30;;;;;;;16.26;100.00;93162.72;5016501;28;20664;-94
2021/05/28 00:09:12;;;;;;;7.40;4.63;;;;;;;16.27;100.00;93148.41;5015720;28;20198;-93
2021/05/28 00:11:40;;;;;;;4.50;4.07;;;;;;;16.15;100.00;93154.00;5015737;28;20195;-93
2021/05/28 00:14:07;;;;;;;4.60;4.20;;;;;;;16.15;100.00;93169.09;5015520;28;20209;-92
2021/05/28 00:16:34;;;;;;;5.27;4.60;;;;;;;16.09;100.00;93178.13;5015687;28;20206;-94
2021/05/28 00:19:01;;;;;;;5.13;4.73;;;;;;;15.76;100.00;93217.38;5015656;28;20203;-93
2021/05/28 00:21:28;;;;;;;8.37;4.97;;;;;;;15.74;100.00;93216.81;5015221;28;20230;-94
2021/05/28 00:23:55;;;;;;;7.40;4.47;;;;;;;15.86;100.00;93217.38;5014875;28;20202;-94
2021/05/28 00:26:22;;;;;;;5.10;4.70;;;;;;;15.67;100.00;93229.53;5015868;28;20210;-93
2021/05/28 00:28:49;;;;;;;4.60;4.00;;;;;;;15.77;100.00;93181.88;5031798;28;20202;-96
2021/05/28 00:31:17;;;;;;;4.80;4.30;;;;;;;15.80;100.00;93133.69;5019272;28;20197;-94
2021/05/28 00:33:44;;;;;;;5.03;4.53;;;;;;;15.86;100.00;93118.56;5015461;28;20209;-93
2021/05/28 00:36:11;;;;;;;5.23;4.73;;;;;;;15.83;100.00;93145.56;5016443;28;20232;-92
2021/05/28 00:38:37;;;;;;;6.93;4.80;;;;;;;15.62;100.00;93192.41;5019846;28;20202;-93
2021/05/28 00:41:05;;;;;;;6.30;4.80;;;;;;;15.72;100.00;93191.66;5019886;28;20207;-92
2021/05/28 00:43:32;;;;;;;5.20;4.73;;;;;;;15.61;100.00;93212.81;5018400;28;20219;-93
2021/05/28 00:45:59;;;;;;;5.37;4.37;;;;;;;15.46;100.00;93229.47;5016251;28;20195;-93
2021/05/28 00:48:26;;;;;;;4.33;3.90;;;;;;;15.54;100.00;93233.44;5016208;28;20203;-93
2021/05/28 00:50:53;;;;;;;4.67;4.20;;;;;;;15.58;100.00;93237.16;5018993;28;20209;-94
2021/05/28 00:53:21;;;;;;;5.07;4.33;;;;;;;15.76;100.00;93245.66;5018532;28;20243;-92
2021/05/28 00:55:48;;;;;;;5.13;4.63;;;;;;;15.49;100.00;93296.19;5016772;28;20232;-93
2021/05/28 00:58:17;;;;;;;6.80;4.77;;;;;;;15.31;100.00;93337.94;5015059;28;20667;-93
2021/05/28 01:00:44;;;;;;;7.20;5.07;;;;;;;15.46;100.00;93345.94;5019741;28;20630;-92
2021/05/28 01:03:11;;;;;;;5.33;3.83;;;;;;;15.40;100.00;93362.84;5017684;28;20226;-94
2021/05/28 01:05:39;;;;;;;5.13;4.73;;;;;;;15.33;100.00;93388.75;5016757;28;20740;-93
2021/05/28 01:08:06;;;;;;;5.03;4.63;;;;;;;15.21;100.00;93418.06;5015014;28;20205;-93
2021/05/28 01:10:33;;;;;;;3.97;3.67;;;;;;;15.10;100.00;93439.41;5014907;28;20220;-94
2021/05/28 01:13:04;;;;;;;5.30;4.33;;;;;;;15.15;100.00;93437.59;5014749;28;20238;-93
2021/05/28 01:15:32;;;;;;;4.97;4.27;;;;;;;15.19;100.00;93462.50;5014735;28;20694;-93
2021/05/28 01:17:59;;;;;;;4.93;4.07;;;;;;;15.26;100.00;93499.31;5014807;28;20204;-95
2021/05/28 01:20:26;;;;;;;5.20;4.30;;;;;;;15.21;100.00;93576.03;5014624;28;20733;-93
2021/05/28 01:22:56;;;;;;;5.53;4.93;;;;;;;15.24;100.00;93609.91;5014691;28;20242;-96
2021/05/28 01:25:23;;;;;;;4.77;4.20;;;;;;;15.13;100.00;93684.94;5018118;28;20260;-95
2021/05/28 01:27:50;;;;;;;4.53;4.13;;;;;;;15.05;100.00;93736.44;5021598;28;20201;-95
2021/05/28 01:30:18;;;;;;;5.13;4.63;;;;;;;14.98;100.00;93842.44;5017185;28;20192;-94
2021/05/28 01:32:46;;;;;;;5.37;4.53;;;;;;;15.05;100.00;93965.78;5015324;28;20203;-93
2021/05/28 01:35:15;;;;;;;4.70;4.30;;;;;;;15.14;100.00;93998.75;5013938;28;20204;-94
2021/05/28 01:37:43;;;;;;;6.03;4.00;;;;;;;15.22;100.00;94053.88;5014550;28;20670;-93
2021/05/28 01:40:14;;;;;;;4.30;4.00;;;;;;;15.12;100.00;94101.34;5013890;28;20188;-93
2021/05/28 01:42:41;;;;;;;5.70;4.00;;;;;;;15.11;100.00;94118.28;5013844;28;20212;-93
2021/05/28 01:45:09;;;;;;;4.40;3.43;;;;;;;15.17;100.00;94064.38;5014363;28;20203;-94
2021/05/28 01:47:36;;;;;;;4.70;3.37;;;;;;;15.19;100.00;94004.09;5014217;28;20299;-96
2021/05/28 01:50:05;;;;;;;5.40;3.30;;;;;;;15.23;100.00;93976.09;5013946;28;20220;-95
2021/05/28 01:52:32;;;;;;;5.33;3.30;;;;;;;15.35;100.00;93897.41;5014005;28;20225;-96
2021/05/28 01:54:59;;;;;;;3.90;3.60;;;;;;;15.17;100.00;93873.88;5014069;28;20204;-94
2021/05/28 01:57:27;;;;;;;4.00;3.50;;;;;;;15.16;100.00;93917.25;5013592;28;20200;-93
2021/05/28 01:59:54;;;;;;;4.63;3.80;;;;;;;15.01;100.00;93957.53;5013918;28;20207;-96
2021/05/28 02:02:20;;;;;;;4.27;3.53;;;;;;;15.04;100.00;94003.88;5013388;28;20225;-94
2021/05/28 02:04:47;;;;;;;3.67;3.30;;;;;;;15.14;100.00;94009.31;5013780;28;20232;-93
2021/05/28 02:07:14;;;;;;;3.40;3.03;;;;;;;15.04;100.00;94036.41;5013588;28;20262;-94
2021/05/28 02:09:41;;;;;;;4.33;3.20;;;;;;;15.11;100.00;94047.63;5013748;28;20202;-93
2021/05/28 02:12:09;;;;;;;5.57;3.47;;;;;;;15.17;100.00;94051.16;5014505;28;20219;-94
2021/05/28 02:14:36;;;;;;;4.47;3.30;;;;;;;14.98;100.00;94112.22;5014692;28;20667;-93
2021/05/28 02:17:04;;;;;;;5.27;3.50;;;;;;;14.89;100.00;94210.72;5013521;28;20252;-92
2021/05/28 02:19:31;;;;;;;3.80;3.20;;;;;;;14.90;100.00;94281.09;5013401;28;20203;-92
2021/05/28 02:21:58;;;;;;;3.30;3.03;;;;;;;14.85;100.00;94366.41;5013075;28;20236;-93
2021/05/28 02:24:24;;;;;;;3.97;3.60;;;;;;;14.78;100.00;94450.38;5013458;28;20197;-93
2021/05/28 02:26:55;;;;;;;4.23;3.23;;;;;;;14.87;100.00;94475.44;5013190;28;20205;-92
2021/05/28 02:29:22;;;;;;;3.70;3.40;;;;;;;14.89;100.00;94478.66;5013581;28;20193;-92
2021/05/28 02:31:50;;;;;;;6.53;3.83;;;;;;;14.77;100.00;94499.00;5013172;28;20198;-93
2021/05/28 02:34:17;;;;;;;3.10;2.80;;;;;;;14.79;100.00;94512.81;5013132;28;20193;-94
2021/05/28 02:36:44;;;;;;;4.30;3.50;;;;;;;14.80;100.00;94501.19;5013704;28;20200;-94
2021/05/28 02:39:11;;;;;;;5.13;3.57;;;;;;;14.78;100.00;94457.50;5013155;28;20206;-95
2021/05/28 02:41:38;;;;;;;6.20;3.70;;;;;;;14.94;100.00;94409.22;5013131;28;20208;-94
2021/05/28 02:44:06;;;;;;;5.20;3.30;;;;;;;14.92;100.00;94335.38;5013269;28;20229;-94
2021/05/28 02:46:34;;;;;;;5.87;3.57;;;;;;;14.84;100.00;94311.94;5014543;28;20296;-95
2021/05/28 02:49:02;;;;;;;4.30;3.70;;;;;;;14.81;100.00;94303.66;5017275;28;20226;-94
2021/05/28 02:51:29;;;;;;;4.10;3.33;;;;;;;14.84;100.00;94327.78;5017348;28;20200;-94
2021/05/28 02:53:55;;;;;;;5.27;3.40;;;;;;;15.03;100.00;94303.84;5017443;28;20684;-95
2021/05/28 02:56:22;;;;;;;3.77;3.03;;;;;;;14.98;100.00;94284.19;5017016;28;20251;-94
2021/05/28 02:58:49;;;;;;;3.90;3.30;;;;;;;14.99;100.00;94304.28;5017014;28;20681;-93
2021/05/28 03:01:16;;;;;;;3.10;2.80;;;;;;;14.98;100.00;94345.03;5016918;28;20260;-94
2021/05/28 03:03:43;;;;;;;3.63;3.00;;;;;;;14.93;100.00;94355.50;5017095;28;20223;-91
2021/05/28 03:09:15;;;;;;;5.93;4.03;;;;;;;14.81;100.00;94462.34;5018797;28;20200;-95
2021/05/28 03:14:24;;;;;;;4.10;2.87;;;;;;;14.80;100.00;94505.69;5017611;28;20304;-92
2021/05/28 03:16:53;;;;;;;3.63;3.10;;;;;;;14.65;100.00;94557.16;5018756;28;20205;-96
2021/05/28 03:19:22;;;;;;;5.03;4.33;;;;;;;14.66;100.00;94579.91;5020935;28;20291;-96
2021/05/28 03:24:35;;;;;;;8.50;3.57;;;;;;;14.97;100.00;94504.78;5040397;28;20189;-96
2021/05/28 03:27:15;;;;;;;4.83;2.53;;;;;;;14.96;100.00;94460.84;5039848;28;20180;-96
2021/05/28 03:29:42;;;;;;;5.00;3.20;;;;;;;14.97;100.00;94473.03;5039127;28;20201;-96
2021/05/28 03:32:09;;;;;;;6.17;3.60;;;;;;;14.97;100.00;94496.06;5038624;28;20197;-96
2021/05/28 03:34:36;;;;;;;3.20;2.90;;;;;;;15.11;100.00;94494.00;5030752;28;20205;-91
2021/05/28 03:37:04;;;;;;;3.50;3.07;;;;;;;15.01;100.00;94506.97;5020686;28;20204;-96
2021/05/28 03:39:34;;;;;;;4.00;3.60;;;;;;;15.15;100.00;94525.03;5018863;28;20204;-94
2021/05/28 03:42:10;;;;;;;4.27;3.20;;;;;;;15.03;100.00;94548.03;5018142;28;20217;-94
2021/05/28 03:44:39;;;;;;;4.43;3.13;;;;;;;15.06;100.00;94557.34;5058302;23;20262;-87
2021/05/28 03:47:09;;;;;;;4.87;2.70;;;;;;;15.18;100.00;94571.41;4981599;28;20209;-94
2021/05/28 03:49:37;;;;;;;6.03;3.17;;;;;;;15.26;100.00;94579.00;4976249;28;20249;-94
2021/05/28 03:52:05;;;;;;;5.87;3.40;;;;;;;15.33;100.00;94586.84;4976749;28;20217;-92
2021/05/28 03:54:33;;;;;;;4.80;3.80;;;;;;;15.44;100.00;94586.03;4977301;28;20215;-93
2021/05/28 03:57:00;;;;;;;3.97;3.40;;;;;;;15.40;100.00;94601.56;4977384;28;20194;-92
2021/05/28 03:59:27;;;;;;;3.50;3.30;;;;;;;15.43;100.00;94629.44;4979458;28;20198;-92
2021/05/28 04:01:53;;;;;;;3.37;3.07;;;;;;;15.52;100.00;94656.38;4978578;28;20703;-91
2021/05/28 04:04:20;;;;;;;5.33;3.10;;;;;;;15.50;100.00;94674.34;4977816;28;20659;-93
2021/05/28 04:06:47;;;;;;;5.13;3.63;;;;;;;15.71;100.00;94676.47;4976854;28;20202;-94
2021/05/28 04:09:15;;;;;;;3.50;3.20;;;;;;;15.75;100.00;94679.47;4977022;28;20258;-93
2021/05/28 04:11:42;;;;;;;4.97;4.47;;;;;;;15.80;100.00;94736.03;4976664;28;20259;-92
2021/05/28 04:14:09;;;;;;;4.80;4.23;;;;;;;15.81;100.00;94761.47;4976679;28;20206;-94
2021/05/28 04:16:36;;;;;;;6.53;4.13;;;;;;;15.77;100.00;94776.22;4977023;28;20223;-93
2021/05/28 04:19:03;;;;;;;4.17;3.77;;;;;;;15.75;100.00;94778.28;4976653;28;20201;-93
2021/05/28 04:21:30;;;;;;;6.83;3.57;;;;;;;15.86;100.00;94748.38;4976418;28;20206;-94
2021/05/28 04:23:57;;;;;;;6.27;4.50;;;;;;;16.02;100.00;94706.31;4976339;28;20241;-92
2021/05/28 04:26:25;;;;;;;6.10;3.50;;;;;;;16.21;100.00;94646.88;4976501;28;20204;-93
2021/05/28 04:28:52;;;;;;;6.03;3.70;;;;;;;16.33;100.00;94615.81;4976254;28;20208;-95
2021/05/28 04:31:19;;;;;;;20.70;5.10;;;;;;;16.37;100.00;94600.25;4976266;28;20235;-93
2021/05/28 04:33:46;;;;;;;3.50;3.20;;;;;;;16.41;100.00;94585.47;4976435;28;20204;-93
2021/05/28 04:36:13;;;;;;;5.23;3.90;;;;;;;16.47;100.00;94610.25;4976292;28;20208;-95
2021/05/28 04:38:39;;;;;;;4.47;4.07;;;;;;;16.54;100.00;94616.22;4976201;28;20208;-93
2021/05/28 04:41:06;;;;;;;3.77;3.40;;;;;;;16.46;100.00;94651.06;4976337;28;20232;-94
2021/05/28 04:43:35;;;;;;;3.47;3.10;;;;;;;16.48;100.00;94657.72;4976379;28;20263;-94
2021/05/28 04:46:02;;;;;;;3.27;2.97;;;;;;;16.55;100.00;94681.47;4976231;28;20720;-93
2021/05/28 04:48:28;;;;;;;5.60;3.53;;;;;;;16.56;100.00;94715.75;4975982;28;20209;-95
2021/05/28 04:50:55;;;;;;;4.33;3.30;;;;;;;16.59;100.00;94687.91;4975850;28;20260;-93
2021/05/28 04:53:22;;;;;;;5.20;2.60;;;;;;;16.56;100.00;94675.16;4975879;28;20207;-93
2021/05/28 04:55:49;;;;;;;4.53;2.77;;;;;;;16.55;100.00;94681.47;4975613;28;20201;-94
2021/05/28 04:58:16;;;;;;;3.90;2.83;;;;;;;16.52;100.00;94711.13;4976039;28;20279;-93
2021/05/28 05:00:45;;;;;;;5.63;3.63;;;;;;;16.34;100.00;94744.69;4975911;28;20280;-93
2021/05/28 05:03:12;;;;;;;3.23;2.93;;;;;;;16.28;100.00;94766.84;4975925;28;20255;-95
2021/05/28 05:05:38;;;;;;;4.73;3.00;;;;;;;16.16;100.00;94790.66;4975722;28;20201;-92
2021/05/28 05:08:05;;;;;;;2.87;2.67;;;;;;;16.14;100.00;94818.44;4975750;28;20590;-93
2021/05/28 05:10:32;;;;;;;2.77;2.57;;;;;;;16.23;100.00;94814.41;4975333;28;20211;-95
2021/05/28 05:12:59;;;;;;;3.20;2.90;;;;;;;16.21;100.00;94832.41;4975999;28;20686;-93
2021/05/28 05:15:26;;;;;;;3.00;2.70;;;;;;;16.21;100.00;94848.31;4975463;28;20208;-94
2021/05/28 05:17:54;;;;;;;5.27;3.10;;;;;;;16.25;100.00;94861.94;4975441;28;20677;-93
2021/05/28 05:20:21;;;;;;;4.13;3.00;;;;;;;16.19;100.00;94884.84;4975390;28;20676;-92
2021/05/28 05:22:47;;;;;;;3.83;3.00;;;;;;;16.19;100.00;94876.88;4975358;28;20319;-93
2021/05/28 05:25:15;;;;;;;2.80;2.60;;;;;;;16.22;100.00;94871.13;4975345;28;20260;-93
2021/05/28 05:27:41;;;;;;;4.63;2.60;;;;;;;16.27;100.00;94865.94;4975511;28;20232;-92
2021/05/28 05:30:09;;;;;;;4.77;2.67;;;;;;;16.32;100.00;94847.53;4975464;28;20609;-94
2021/05/28 05:32:36;;;;;;;10.43;3.03;;;;;;;16.49;100.00;94805.22;4975039;28;20237;-93
2021/05/28 05:35:05;;;;;;;4.20;3.10;;;;;;;16.53;100.00;94809.03;4975065;28;20669;-93
2021/05/28 05:37:32;;;;;;;3.37;3.03;;;;;;;16.20;100.00;94836.09;4975121;28;20193;-94
2021/05/28 05:39:59;;;;;;;4.53;3.00;;;;;;;16.15;100.00;94833.31;4975448;28;20197;-91
2021/05/28 05:42:26;;;;;;;4.90;3.37;;;;;;;16.21;100.00;94835.06;4975388;28;20263;-90
2021/05/28 05:44:53;;;;;;;3.40;2.90;;;;;;;16.28;100.00;94819.84;4974487;28;20272;-94
2021/05/28 05:47:20;;;;;;;2.57;2.20;;;;;;;16.36;100.00;94792.19;4974995;28;20192;-92
2021/05/28 05:49:46;;;;;;;3.93;2.70;;;;;;;16.40;100.00;94794.16;4975365;28;20196;-92
2021/05/28 05:52:14;;;;;;;3.13;2.40;;;;;;;16.46;100.00;94816.28;4974252;28;20236;-95
2021/05/28 05:54:41;;;;;;;4.10;2.60;;;;;;;16.40;100.00;94849.81;4974695;28;20240;-94
2021/05/28 05:57:08;;;;;;;5.47;2.63;;;;;;;16.39;100.00;94885.34;4974877;28;20203;-95
2021/05/28 05:59:35;;;;;;;4.93;2.73;;;;;;;16.40;100.00;94886.94;4974791;28;20235;-94
2021/05/28 06:02:02;;;;;;;5.70;2.83;;;;;;;16.36;100.00;94892.94;4974543;28;20228;-93
2021/05/28 06:04:29;;;;;;;3.40;3.10;;;;;;;16.31;100.00;94911.38;4974510;28;20254;-93
2021/05/28 06:06:56;;;;;;;8.70;3.10;;;;;;;16.28;100.00;94910.00;4974951;28;20763;-92
2021/05/28 06:09:24;;;;;;;4.50;3.03;;;;;;;16.28;100.00;94928.56;4974723;28;20204;-91
2021/05/28 06:11:51;;;;;;;5.80;3.10;;;;;;;16.24;100.00;94942.47;4974519;28;20213;-94
2021/05/28 06:14:18;;;;;;;2.60;2.40;;;;;;;16.30;100.00;94945.03;4975629;28;20208;-92
2021/05/28 06:16:44;;;;;;;3.80;3.40;;;;;;;16.25;100.00;94949.41;4974644;28;20208;-92
2021/05/28 06:19:11;;;;;;;5.53;3.50;;;;;;;16.16;100.00;94954.22;4974410;28;20216;-93
2021/05/28 06:21:38;;;;;;;3.60;3.13;;;;;;;16.16;100.00;94959.50;4973608;28;20255;-92
2021/05/28 06:24:07;;;;;;;4.83;2.97;;;;;;;16.23;100.00;94965.53;4974156;28;20243;-91
2021/05/28 06:26:35;;;;;;;4.90;2.40;;;;;;;16.37;100.00;94953.69;4974234;28;20290;-92
2021/05/28 06:29:03;;;;;;;2.97;2.60;;;;;;;16.41;100.00;94951.41;4974540;28;20208;-92
2021/05/28 06:31:30;;;;;;;3.87;2.73;;;;;;;16.47;100.00;94950.50;4974123;28;20752;-94
2021/05/28 06:33:57;;;;;;;6.63;3.20;;;;;;;16.50;100.00;94931.47;4974477;28;20193;-91
2021/05/28 06:36:24;;;;;;;6.00;2.70;;;;;;;16.59;100.00;94906.25;4974705;28;20204;-91
2021/05/28 06:38:50;;;;;;;3.77;3.40;;;;;;;16.65;100.00;94913.25;4974158;28;20201;-93
2021/05/28 06:41:17;;;;;;;4.27;3.20;;;;;;;16.79;100.00;94915.72;4974159;28;20252;-92
2021/05/28 06:43:45;;;;;;;6.67;3.97;;;;;;;16.67;100.00;94925.50;4973723;28;20259;-93
2021/05/28 06:46:12;;;;;;;4.37;3.53;;;;;;;16.68;100.00;94946.50;4974416;28;20185;-93
2021/05/28 06:48:39;;;;;;;4.80;3.77;;;;;;;16.79;100.00;94902.47;4974026;28;20674;-91
2021/05/28 06:51:06;;;;;;;4.87;3.87;;;;;;;16.71;100.00;94903.59;4974330;28;20603;-91
2021/05/28 06:53:33;;;;;;;6.37;3.63;;;;;;;16.76;100.00;94900.28;4974321;28;20577;-93
2021/05/28 06:55:59;;;;;;;3.00;2.77;;;;;;;16.71;100.00;94863.00;4974207;28;20204;-92
2021/05/28 06:58:27;;;;;;;5.60;3.43;;;;;;;16.75;100.00;94824.38;4974390;28;20297;-92
2021/05/28 07:00:55;;;;;;;4.67;3.97;;;;;;;16.82;100.00;94795.88;4974257;28;20284;-92
2021/05/28 07:03:22;;;;;;;4.63;3.37;;;;;;;16.90;100.00;94811.44;4974055;28;20231;-91
2021/05/28 07:05:49;;;;;;;5.97;4.07;;;;;;;16.98;100.00;94807.63;4974174;28;20248;-92
2021/05/28 07:08:16;;;;;;;4.80;3.93;;;;;;;17.01;100.00;94788.59;4974096;28;20649;-93
2021/05/28 07:10:43;;;;;;;6.17;4.67;;;;;;;16.92;100.00;94809.34;4973923;28;20262;-93
2021/05/28 07:13:10;;;;;;;5.80;3.53;;;;;;;17.10;100.00;94819.81;4973880;28;20216;-93
2021/05/28 07:15:38;;;;;;;4.80;3.50;;;;;;;17.10;100.00;94777.34;4973717;28;20702;-92
2021/05/28 07:18:06;;;;;;;4.60;2.77;;;;;;;17.12;100.00;94761.19;4973904;28;20197;-92
2021/05/28 07:20:33;;;;;;;5.93;3.40;;;;;;;17.16;100.00;94735.78;4973703;28;20209;-93
2021/05/28 07:23:00;;;;;;;5.50;3.20;;;;;;;17.31;100.00;94721.97;4973959;28;20614;-92
2021/05/28 07:25:27;;;;;;;6.07;3.60;;;;;;;17.27;100.00;94750.84;4973954;28;20212;-92
2021/05/28 07:27:54;;;;;;;5.27;3.43;;;;;;;17.35;100.00;94781.53;4973935;28;20578;-92
2021/05/28 07:30:21;;;;;;;5.73;3.90;;;;;;;17.53;100.00;94809.78;4973978;28;20204;-92
2021/05/28 07:32:48;;;;;;;5.37;3.67;;;;;;;17.54;100.00;94836.09;4975211;28;20201;-91
2021/05/28 07:35:16;;;;;;;4.13;3.83;;;;;;;17.82;100.00;94822.00;4977696;28;20197;-92
2021/05/28 07:37:43;;;;;;;4.47;3.93;;;;;;;17.89;100.00;94802.47;4977340;28;20193;-92
2021/05/28 07:40:11;;;;;;;5.63;3.17;;;;;;;17.96;100.00;94814.53;4977332;28;20243;-93
2021/05/28 07:42:38;;;;;;;6.80;4.33;;;;;;;18.08;100.00;94801.19;4977308;28;20229;-92
2021/05/28 07:45:07;;;;;;;4.63;3.37;;;;;;;18.16;100.00;94738.84;4976959;28;20240;-94
2021/05/28 07:47:34;;;;;;;8.17;3.13;;;;;;;18.12;100.00;94791.69;4977252;28;20256;-93
2021/05/28 07:50:04;;;;;;;4.03;2.73;;;;;;;18.12;100.00;94828.13;4976995;28;20664;-93
2021/05/28 07:52:32;;;;;;;4.30;3.60;;;;;;;18.22;100.00;94852.19;4977201;28;20725;-94
2021/05/28 07:54:58;;;;;;;3.90;3.17;;;;;;;18.33;100.00;94948.94;4976908;28;20269;-92
2021/05/28 07:57:25;;;;;;;4.87;3.30;;;;;;;18.22;100.00;94970.03;4977355;28;20701;-92
2021/05/28 07:59:55;;;;;;;3.77;3.43;;;;;;;18.37;100.00;95008.59;4976997;28;20216;-94
2021/05/28 08:02:22;;;;;;;3.10;2.70;;;;;;;18.49;100.00;95006.66;4976727;28;20232;-92
2021/05/28 08:04:49;;;;;;;4.83;3.30;;;;;;;18.61;100.00;95020.72;4976954;28;20201;-92
2021/05/28 08:07:16;;;;;;;4.80;3.03;;;;;;;18.48;100.00;95050.28;4976786;28;20193;-92
2021/05/28 08:09:45;;;;;;;4.60;4.20;;;;;;;18.39;100.00;95092.44;4976715;28;20696;-92
2021/05/28 08:12:12;;;;;;;5.63;3.50;;;;;;;18.45;100.00;95123.41;4976596;28;20227;-94
2021/05/28 08:14:39;;;;;;;3.37;3.07;;;;;;;18.47;100.00;95115.19;4976533;28;20197;-92
2021/05/28 08:17:06;;;;;;;6.00;4.33;;;;;;;18.50;100.00;95091.59;4976565;28;20240;-92
2021/05/28 08:19:33;;;;;;;4.03;3.63;;;;;;;18.51;100.00;95098.50;4976591;28;20208;-93
2021/05/28 08:22:00;;;;;;;5.10;3.30;;;;;;;18.53;100.00;95109.75;4976749;28;20208;-92
2021/05/28 08:24:27;;;;;;;5.30;3.20;;;;;;;18.51;100.00;95063.13;4976883;28;20201;-92
2021/05/28 08:26:55;;;;;;;5.93;2.97;;;;;;;18.55;100.00;95056.28;4976497;28;20189;-93
2021/05/28 08:29:22;;;;;;;3.03;2.83;;;;;;;18.36;100.00;95052.16;4976468;28;20232;-92
2021/05/28 08:31:49;;;;;;;4.63;2.87;;;;;;;18.33;100.00;95047.34;4976252;28;20208;-93
2021/05/28 08:34:16;;;;;;;8.40;3.27;;;;;;;18.44;100.00;95065.13;4976104;28;20200;-93
2021/05/28 08:36:42;;;;;;;2.67;2.50;;;;;;;18.48;100.00;95087.53;4976231;28;20689;-92
2021/05/28 08:39:09;;;;;;;5.30;3.10;;;;;;;18.50;100.00;95090.78;4976086;28;20217;-95
2021/05/28 08:41:42;;;;;;;2.90;2.60;;;;;;;18.69;100.00;95102.84;4976137;28;20564;-92
2021/05/28 08:44:12;;;;;;;7.13;3.63;;;;;;;18.78;100.00;95105.97;4974898;28;20244;-94
2021/05/28 08:46:39;;;;;;;4.90;3.00;;;;;;;18.91;100.00;95107.50;4975986;28;20200;-93
2021/05/28 08:49:10;;;;;;;4.23;2.97;;;;;;;18.90;100.00;95124.53;4976133;28;20205;-93
2021/05/28 08:51:38;;;;;;;3.77;2.83;;;;;;;18.97;100.00;95133.19;4976372;28;20197;-93
2021/05/28 08:54:06;;;;;;;2.77;2.47;;;;;;;18.98;100.00;95140.13;4975947;28;20295;-93
2021/05/28 08:56:33;;;;;;;3.20;2.20;;;;;;;18.96;100.00;95135.06;4975890;28;20193;-94
2021/05/28 08:59:00;;;;;;;4.87;3.00;;;;;;;18.68;100.00;95146.47;4975696;28;20201;-93
2021/05/28 09:01:28;;;;;;;2.33;2.13;;;;;;;18.71;100.00;95161.16;4975718;28;20212;-92
2021/05/28 09:03:59;;;;;;;4.00;2.50;;;;;;;18.73;100.00;95172.41;4975799;28;20224;-93
2021/05/28 09:06:37;;;;;;;3.20;2.87;;;;;;;18.73;100.00;95173.22;4975809;28;20287;-92
2021/05/28 09:09:14;;;;;;;2.83;2.60;;;;;;;18.73;100.00;95172.41;4975606;28;20276;-93
2021/05/28 09:11:55;;;;;;;2.50;2.30;;;;;;;18.86;100.00;95163.34;4975547;28;20196;-92
2021/05/28 09:14:34;;;;;;;2.50;2.30;;;;;;;18.88;100.00;95190.56;4975539;28;20192;-93
2021/05/28 09:17:04;;;;;;;2.97;2.70;;;;;;;18.84;100.00;95210.69;4975569;28;20196;-93
2021/05/28 09:19:31;;;;;;;2.97;2.33;;;;;;;18.89;100.00;95221.44;4975925;28;20690;-94
2021/05/28 09:22:00;;;;;;;5.43;3.10;;;;;;;18.90;100.00;95204.41;4975347;28;20212;-93
2021/05/28 09:24:31;;;;;;;7.07;2.60;;;;;;;18.87;100.00;95247.47;4975377;28;20736;-93
2021/05/28 09:27:17;;;;;;;3.80;2.97;;;;;;;18.90;100.00;95270.97;4975647;28;20705;-93
2021/05/28 09:30:00;;;;;;;4.77;2.63;;;;;;;18.73;100.00;95260.25;4975271;28;20693;-92
2021/05/28 09:32:28;;;;;;;3.07;2.60;;;;;;;18.67;100.00;95261.97;4975395;28;20605;-93
2021/05/28 09:34:55;;;;;;;4.13;3.77;;;;;;;18.68;100.00;95233.50;4975165;28;20212;-93
2021/05/28 09:37:36;;;;;;;3.83;2.60;;;;;;;18.44;100.00;95224.75;4974974;28;20197;-93
2021/05/28 09:40:13;;;;;;;3.40;3.10;;;;;;;18.32;100.00;95197.31;4975086;28;20239;-93
2021/05/28 09:42:53;;;;;;;3.17;2.87;;;;;;;18.32;100.00;95197.31;4974922;28;20215;-93
2021/05/28 09:45:31;;;;;;;3.10;2.80;;;;;;;18.33;100.00;95151.09;4974997;28;20240;-93
2021/05/28 09:48:00;;;;;;;5.03;2.73;;;;;;;18.20;100.00;95128.19;4975119;28;20204;-93
2021/05/28 09:50:32;;;;;;;6.57;3.20;;;;;;;18.30;100.00;95072.56;4974700;28;20193;-93
2021/05/28 09:53:00;;;;;;;5.57;2.67;;;;;;;18.30;100.00;95062.72;4974794;28;20681;-93
2021/05/28 09:55:30;;;;;;;4.53;3.40;;;;;;;18.46;100.00;95089.63;4974789;28;20201;-92
2021/05/28 09:57:57;;;;;;;6.50;3.07;;;;;;;18.40;100.00;95085.25;4974742;28;20589;-93
2021/05/28 10:00:26;;;;;;;4.13;2.60;;;;;;;18.36;100.00;95060.16;4974914;28;20577;-91
2021/05/28 10:03:12;;;;;;;3.07;2.87;;;;;;;18.32;100.00;95105.03;4974584;28;20221;-93
2021/05/28 10:05:41;;;;;;;4.53;3.13;;;;;;;18.54;100.00;95052.00;4974806;28;20185;-92
2021/05/28 10:08:09;;;;;;;4.87;3.20;;;;;;;18.45;100.00;94978.94;4974485;28;20252;-93
2021/05/28 10:10:37;;;;;;;4.33;3.90;;;;;;;18.30;100.00;94992.78;4974706;28;20209;-92
2021/05/28 10:13:10;;;;;;;5.83;4.83;;;;;;;18.13;100.00;95085.78;4975038;28;20201;-94
2021/05/28 10:15:39;;;;;;;5.33;3.93;;;;;;;17.83;100.00;95182.41;4974461;28;20225;-94
2021/05/28 10:18:07;;;;;;;6.07;4.20;;;;;;;17.93;100.00;95157.13;4974497;28;20201;-94
2021/05/28 10:20:36;;;;;;;6.53;3.50;;;;;;;17.77;100.00;95002.66;4974370;28;20667;-94
2021/05/28 10:23:03;;;;;;;4.63;3.00;;;;;;;17.51;100.00;94886.22;4974164;28;20780;-93
2021/05/28 10:25:30;;;;;;;3.03;2.83;;;;;;;17.46;100.00;94793.16;4974310;28;20670;-94
2021/05/28 10:27:59;;;;;;;5.10;3.10;;;;;;;17.26;100.00;94764.38;4974605;28;20193;-93
2021/05/28 10:30:28;;;;;;;3.50;2.67;;;;;;;17.32;100.00;94787.34;4974468;28;20670;-93
2021/05/28 10:33:22;;;;;;;4.80;3.27;;;;;;;17.38;100.00;94836.03;4974226;28;20201;-94
2021/05/28 10:35:53;;;;;;;5.10;3.53;;;;;;;17.34;100.00;94782.56;4974205;28;20247;-94
2021/05/28 10:38:44;;;;;;;3.57;2.60;;;;;;;17.41;100.00;94886.03;4974498;28;20212;-92
2021/05/28 10:41:40;;;;;;;4.17;2.50;;;;;;;17.44;100.00;94779.31;4974328;28;20193;-94
2021/05/28 10:44:26;;;;;;;3.43;2.37;;;;;;;17.51;100.00;94679.03;4973734;28;20271;-93
2021/05/28 10:47:20;;;;;;;2.60;2.40;;;;;;;17.73;100.00;94697.72;4973971;28;20260;-96
2021/05/28 10:49:48;;;;;;;2.60;1.97;;;;;;;17.65;100.00;94680.31;4974628;28;20634;-94
2021/05/28 10:52:27;;;;;;;2.43;1.97;;;;;;;17.74;100.00;94625.75;4974048;28;20205;-93
2021/05/28 10:54:56;;;;;;;2.33;1.93;;;;;;;17.76;100.00;94559.91;4974180;28;20268;-93
2021/05/28 10:57:30;;;;;;;1.90;1.80;;;;;;;17.72;100.00;94526.88;4974136;28;20279;-93
2021/05/28 10:59:59;;;;;;;2.07;1.87;;;;;;;17.83;100.00;94549.88;4973999;28;20190;-94
2021/05/28 11:02:58;;;;;;;1.77;1.57;;;;;;;17.72;100.00;94609.22;4973639;28;20201;-93
2021/05/28 11:05:49;;;;;;;1.83;1.57;;;;;;;17.81;100.00;94679.56;4974407;28;20273;-93
2021/05/28 11:08:36;;;;;;;2.00;1.90;;;;;;;17.61;100.00;94671.25;4975974;28;20251;-94
2021/05/28 11:11:04;;;;;;;1.93;1.83;;;;;;;17.64;100.00;94744.34;4977881;28;20216;-94
2021/05/28 11:13:31;;;;;;;2.00;1.90;;;;;;;17.57;100.00;94789.66;4977953;28;20634;-95
2021/05/28 11:16:00;;;;;;;2.07;1.97;;;;;;;17.48;100.00;94799.03;4977855;28;20201;-93
2021/05/28 11:18:31;;;;;;;2.10;1.90;;;;;;;17.42;100.00;94859.22;4977522;28;20197;-94
2021/05/28 11:21:18;;;;;;;2.53;2.30;;;;;;;17.31;100.00;94836.97;4977444;28;20200;-93
2021/05/28 11:23:47;;;;;;;3.13;2.50;;;;;;;17.32;100.00;94817.34;4977404;28;20228;-94
2021/05/28 11:26:23;;;;;;;2.27;1.53;;;;;;;17.40;100.00;94824.13;4977557;28;20239;-94
2021/05/28 11:28:52;;;;;;;2.10;1.90;;;;;;;17.43;100.00;94780.38;4977502;28;20183;-95
2021/05/28 11:31:25;;;;;;;2.20;1.93;;;;;;;17.43;100.00;94769.75;4977397;28;20201;-93
2021/05/28 11:33:59;;;;;;;1.80;1.70;;;;;;;17.55;100.00;94763.31;4977843;28;20208;-94
2021/05/28 11:36:50;;;;;;;1.73;1.63;;;;;;;17.48;100.00;94722.00;4977588;28;20205;-93
2021/05/28 11:39:29;;;;;;;1.63;1.53;;;;;;;17.60;100.00;94754.66;4977264;28;20247;-94
2021/05/28 11:42:01;;;;;;;2.00;1.90;;;;;;;17.69;100.00;94827.59;4977191;28;20251;-93